createdAt,value
2023-01-27T00:01:10.312Z,1.58
2023-01-27T00:03:37.481Z,1.73
2023-01-27T00:06:06.748Z,1.50
2023-01-27T00:08:34.625Z,1.10
2023-01-27T00:11:23.122Z,1.31
2023-01-27T00:13:50.956Z,1.39
2023-01-27T00:16:20.577Z,1.44
2023-01-27T00:18:48.549Z,1.71
2023-01-27T00:21:34.786Z,1.80
2023-01-27T00:24:20.969Z,1.55
2023-01-27T00:26:49.008Z,1.20
2023-01-27T00:29:16.869Z,0.97
2023-01-27T00:32:03.134Z,0.89
2023-01-27T00:34:33.174Z,1.12
2023-01-27T00:37:00.106Z,0.92
2023-01-27T00:39:27.857Z,0.92
2023-01-27T00:41:55.812Z,1.17
2023-01-27T00:44:25.465Z,1.19
2023-01-27T00:46:53.468Z,1.28
2023-01-27T00:49:20.484Z,0.88
2023-01-27T00:51:48.355Z,1.12
2023-01-27T00:54:16.194Z,1.15
2023-01-27T00:56:45.155Z,1.30
2023-01-27T00:59:12.960Z,1.27
2023-01-27T01:01:40.767Z,1.47
2023-01-27T01:04:08.688Z,1.63
2023-01-27T01:06:36.594Z,1.50
2023-01-27T01:09:04.666Z,1.55
2023-01-27T01:11:32.803Z,1.25
2023-01-27T01:14:02.363Z,1.46
2023-01-27T01:16:30.443Z,1.56
2023-01-27T01:18:58.777Z,1.68
2023-01-27T01:21:27.284Z,1.72
2023-01-27T01:23:55.306Z,1.97
2023-01-27T01:26:25.020Z,1.95
2023-01-27T01:28:52.848Z,2.08
2023-01-27T01:31:20.719Z,2.12
2023-01-27T01:33:49.192Z,2.18
2023-01-27T01:36:19.264Z,1.84
2023-01-27T01:38:47.982Z,1.84
2023-01-27T01:41:20.482Z,2.04
2023-01-27T01:43:49.635Z,2.17
2023-01-27T01:46:18.918Z,1.95
2023-01-27T01:48:55.734Z,1.59
2023-01-27T01:51:35.070Z,1.47
2023-01-27T01:54:11.906Z,1.48
2023-01-27T01:56:48.021Z,1.42
2023-01-27T01:59:37.030Z,1.59
2023-01-27T02:02:11.266Z,1.66
2023-01-27T02:04:45.090Z,1.79
2023-01-27T02:07:26.812Z,1.86
2023-01-27T02:09:57.374Z,1.82
2023-01-27T02:12:25.113Z,2.03
2023-01-27T02:14:53.451Z,1.98
2023-01-27T02:17:23.406Z,2.09
2023-01-27T02:20:10.958Z,1.83
2023-01-27T02:23:04.631Z,1.63
2023-01-27T02:25:35.484Z,1.57
2023-01-27T02:28:08.627Z,1.79
2023-01-27T02:30:36.525Z,1.93
2023-01-27T02:33:11.027Z,1.81
2023-01-27T02:35:45.302Z,1.99
2023-01-27T02:38:16.451Z,1.68
2023-01-27T02:40:44.905Z,1.59
2023-01-27T02:43:12.916Z,1.70
2023-01-27T02:45:40.722Z,1.74
2023-01-27T02:48:08.882Z,1.74
2023-01-27T02:50:36.853Z,1.68
2023-01-27T02:53:04.665Z,1.72
2023-01-27T02:55:32.411Z,1.54
2023-01-27T02:57:59.521Z,1.78
2023-01-27T03:00:27.566Z,1.46
2023-01-27T03:02:56.069Z,1.42
2023-01-27T03:05:23.877Z,1.63
2023-01-27T03:07:51.837Z,1.74
2023-01-27T03:10:21.447Z,1.96
2023-01-27T03:12:49.160Z,2.05
2023-01-27T03:15:35.810Z,1.80
2023-01-27T03:18:16.072Z,1.37
2023-01-27T03:20:47.544Z,1.58
2023-01-27T03:23:17.637Z,1.74
2023-01-27T03:25:47.738Z,1.63
2023-01-27T03:28:16.234Z,1.44
2023-01-27T03:30:44.080Z,1.29
2023-01-27T03:33:11.935Z,1.10
2023-01-27T03:35:39.829Z,1.27
2023-01-27T03:38:31.528Z,1.31
2023-01-27T03:41:17.688Z,1.26
2023-01-27T03:44:06.165Z,1.24
2023-01-27T03:46:33.939Z,1.21
2023-01-27T03:49:03.668Z,1.26
2023-01-27T03:51:31.521Z,1.27
2023-01-27T03:54:00.981Z,1.00
2023-01-27T03:56:27.919Z,1.19
2023-01-27T03:58:55.760Z,1.00
2023-01-27T04:01:25.336Z,1.16
2023-01-27T04:04:11.909Z,1.14
2023-01-27T04:06:58.492Z,1.27
2023-01-27T04:09:30.331Z,1.31
2023-01-27T04:12:00.433Z,1.27
2023-01-27T04:14:31.291Z,1.15
2023-01-27T04:17:01.203Z,1.36
2023-01-27T04:19:29.137Z,1.59
2023-01-27T04:21:58.205Z,1.59
2023-01-27T04:24:27.198Z,1.69
2023-01-27T04:27:00.252Z,1.86
2023-01-27T04:29:30.995Z,1.77
2023-01-27T04:31:59.286Z,1.67
2023-01-27T04:34:28.269Z,1.47
2023-01-27T04:36:56.368Z,1.10
2023-01-27T04:39:24.953Z,0.86
2023-01-27T04:41:52.613Z,0.88
2023-01-27T04:44:22.356Z,1.07
2023-01-27T04:46:49.942Z,1.12
2023-01-27T04:49:18.249Z,0.89
2023-01-27T04:51:46.321Z,1.20
2023-01-27T04:54:15.001Z,1.17
2023-01-27T04:56:55.154Z,1.45
2023-01-27T04:59:25.138Z,1.54
2023-01-27T05:01:54.323Z,1.41
2023-01-27T05:04:23.376Z,1.52
2023-01-27T05:06:52.073Z,1.58
2023-01-27T05:09:19.731Z,1.59
2023-01-27T05:11:47.504Z,1.73
2023-01-27T05:14:15.474Z,1.83
2023-01-27T05:16:43.361Z,1.82
2023-01-27T05:19:12.267Z,1.85
2023-01-27T05:21:40.250Z,1.93
2023-01-27T05:24:08.388Z,1.79
2023-01-27T05:26:36.408Z,1.66
2023-01-27T05:29:03.635Z,1.63
2023-01-27T05:31:32.105Z,1.48
2023-01-27T05:34:11.920Z,1.52
2023-01-27T05:36:41.981Z,1.53
2023-01-27T05:39:11.786Z,1.32
2023-01-27T05:41:39.694Z,1.14
2023-01-27T05:44:12.510Z,1.34
2023-01-27T05:46:41.663Z,1.26
2023-01-27T05:49:11.501Z,1.37
2023-01-27T05:51:42.306Z,1.21
2023-01-27T05:54:11.911Z,1.29
2023-01-27T05:56:41.749Z,1.37
2023-01-27T05:59:11.525Z,1.32
2023-01-27T06:01:38.589Z,1.42
2023-01-27T06:04:07.085Z,1.49
2023-01-27T06:06:35.481Z,1.39
2023-01-27T06:09:05.001Z,1.30
2023-01-27T06:11:32.857Z,1.42
2023-01-27T06:14:02.331Z,1.18
2023-01-27T06:16:30.156Z,1.21
2023-01-27T06:18:58.782Z,1.32
2023-01-27T06:21:26.600Z,1.27
2023-01-27T06:23:54.844Z,1.49
2023-01-27T06:26:22.914Z,1.20
2023-01-27T06:28:49.851Z,0.42
2023-01-27T06:31:22.248Z,0.45
2023-01-27T06:33:51.373Z,0.26
2023-01-27T06:36:22.897Z,0.22
2023-01-27T06:38:52.551Z,0.59
2023-01-27T06:41:20.480Z,0.53
2023-01-27T06:43:48.610Z,0.69
2023-01-27T06:46:16.561Z,0.86
2023-01-27T06:48:44.714Z,1.11
2023-01-27T06:51:13.047Z,0.84
2023-01-27T06:53:40.950Z,1.06
2023-01-27T06:56:08.250Z,0.57
2023-01-27T06:58:36.665Z,0.69
2023-01-27T07:01:06.841Z,0.34
2023-01-27T07:06:01.121Z,0.79
2023-01-27T07:08:28.150Z,0.46
2023-01-27T07:10:55.246Z,0.26
2023-01-27T07:13:23.345Z,0.77
2023-01-27T07:15:55.939Z,1.14
2023-01-27T07:18:23.054Z,0.82
2023-01-27T07:20:50.930Z,1.08
2023-01-27T07:23:18.902Z,1.11
2023-01-27T07:25:46.913Z,1.41
2023-01-27T07:28:15.192Z,1.08
2023-01-27T07:30:44.303Z,0.76
2023-01-27T07:33:13.034Z,0.19
2023-01-27T07:35:42.913Z,0.38
2023-01-27T07:38:12.792Z,0.28
2023-01-27T07:40:40.954Z,0.15
2023-01-27T07:43:11.698Z,0.33
2023-01-27T07:45:38.599Z,0.63
2023-01-27T07:48:07.943Z,0.37
2023-01-27T07:50:36.611Z,0.43
2023-01-27T07:53:06.022Z,0.40
2023-01-27T07:55:33.511Z,0.43
2023-01-27T07:58:01.970Z,0.53
2023-01-27T08:00:30.674Z,0.41
2023-01-27T08:03:00.989Z,0.64
2023-01-27T08:05:29.713Z,0.67
2023-01-27T08:07:59.027Z,1.00
2023-01-27T08:10:27.143Z,1.04
2023-01-27T08:12:55.066Z,1.29
2023-01-27T08:15:22.583Z,1.35
2023-01-27T08:17:57.566Z,1.10
2023-01-27T08:20:26.809Z,1.15
2023-01-27T08:22:54.783Z,0.89
2023-01-27T08:25:23.037Z,0.97
2023-01-27T08:27:55.060Z,0.96
2023-01-27T08:30:24.397Z,0.70
2023-01-27T08:32:51.580Z,0.60
2023-01-27T08:35:21.182Z,0.77
2023-01-27T08:37:49.323Z,0.82
2023-01-27T08:40:18.007Z,0.71
2023-01-27T08:42:45.992Z,1.04
2023-01-27T08:45:15.645Z,1.36
2023-01-27T08:47:43.576Z,1.37
2023-01-27T08:50:12.593Z,1.19
2023-01-27T08:52:40.938Z,1.52
2023-01-27T08:55:09.141Z,1.69
2023-01-27T08:57:37.133Z,2.01
2023-01-27T09:00:07.261Z,1.56
2023-01-27T09:02:35.391Z,1.65
2023-01-27T09:05:05.242Z,1.87
2023-01-27T09:07:34.388Z,2.04
2023-01-27T09:10:18.376Z,1.63
2023-01-27T09:12:46.461Z,1.97
2023-01-27T09:15:15.145Z,2.16
2023-01-27T09:17:43.442Z,2.41
2023-01-27T09:20:12.719Z,2.44
2023-01-27T09:22:42.897Z,1.98
2023-01-27T09:25:15.037Z,2.15
2023-01-27T09:27:41.893Z,1.48
2023-01-27T09:30:12.513Z,1.81
2023-01-27T09:32:41.384Z,1.68
2023-01-27T09:35:09.726Z,1.46
2023-01-27T09:37:43.531Z,1.54
2023-01-27T09:40:25.696Z,1.06
2023-01-27T09:43:18.295Z,0.93
2023-01-27T09:45:52.144Z,1.02
2023-01-27T09:48:34.135Z,1.30
2023-01-27T09:51:15.424Z,1.16
2023-01-27T09:54:05.276Z,1.07
2023-01-27T09:57:17.589Z,1.46
2023-01-27T09:59:59.648Z,1.54
2023-01-27T10:02:48.534Z,1.89
2023-01-27T10:05:16.356Z,1.69
2023-01-27T10:07:45.974Z,1.57
2023-01-27T10:10:51.154Z,1.53
2023-01-27T10:13:21.748Z,1.59
2023-01-27T10:16:08.561Z,1.67
2023-01-27T10:18:54.161Z,1.66
2023-01-27T10:21:41.903Z,1.61
2023-01-27T10:25:00.390Z,1.49
2023-01-27T10:27:36.181Z,1.41
2023-01-27T10:30:21.629Z,1.65
2023-01-27T10:33:04.994Z,1.74
2023-01-27T10:35:46.783Z,1.43
2023-01-27T10:38:29.743Z,1.78
2023-01-27T10:41:22.237Z,2.01
2023-01-27T10:44:02.166Z,1.87
2023-01-27T10:46:51.761Z,2.18
2023-01-27T10:49:31.532Z,2.30
2023-01-27T10:52:11.823Z,2.35
2023-01-27T10:54:50.570Z,2.49
2023-01-27T10:57:37.129Z,2.32
2023-01-27T11:01:18.199Z,1.73
2023-01-27T11:03:44.275Z,1.70
2023-01-27T11:06:23.378Z,2.04
2023-01-27T11:09:13.883Z,2.10
2023-01-27T11:11:46.785Z,2.13
2023-01-27T11:14:22.589Z,2.28
2023-01-27T11:16:53.306Z,1.49
2023-01-27T11:19:56.228Z,1.47
2023-01-27T11:22:27.962Z,1.43
2023-01-27T11:25:06.059Z,1.75
2023-01-27T11:27:45.796Z,1.98
2023-01-27T11:30:24.463Z,2.11
2023-01-27T11:33:05.240Z,2.06
2023-01-27T11:35:32.507Z,1.90
2023-01-27T11:38:14.605Z,2.06
2023-01-27T11:40:46.028Z,2.27
2023-01-27T11:43:17.714Z,2.39
2023-01-27T11:45:46.880Z,2.23
2023-01-27T11:48:18.118Z,2.36
2023-01-27T11:50:46.474Z,2.51
2023-01-27T11:53:17.049Z,2.52
2023-01-27T11:55:57.093Z,2.44
2023-01-27T11:58:26.307Z,2.20
2023-01-27T12:01:02.167Z,2.25
2023-01-27T12:03:53.463Z,2.36
2023-01-27T12:06:39.726Z,2.35
2023-01-27T12:09:07.852Z,2.22
2023-01-27T12:11:34.851Z,2.37
2023-01-27T12:14:05.091Z,2.33
2023-01-27T12:16:49.576Z,2.18
2023-01-27T12:19:40.394Z,1.90
2023-01-27T12:22:37.471Z,2.32
2023-01-27T12:25:19.591Z,2.43
2023-01-27T12:27:52.970Z,2.36
2023-01-27T12:30:30.204Z,2.35
2023-01-27T12:32:58.962Z,2.41
2023-01-27T12:35:36.860Z,2.20
2023-01-27T12:38:15.311Z,2.25
2023-01-27T12:40:46.601Z,2.49
2023-01-27T12:43:20.039Z,2.66
2023-01-27T12:46:18.542Z,2.56
2023-01-27T12:48:52.706Z,1.73
2023-01-27T12:51:36.518Z,1.69
2023-01-27T12:54:24.842Z,1.62
2023-01-27T12:56:56.895Z,1.65
2023-01-27T12:59:26.094Z,1.65
2023-01-27T13:02:15.594Z,1.54
2023-01-27T13:04:44.230Z,1.41
2023-01-27T13:07:18.884Z,1.36
2023-01-27T13:09:54.849Z,1.25
2023-01-27T13:12:24.756Z,0.99
2023-01-27T13:15:02.762Z,1.41
2023-01-27T13:17:38.078Z,1.53
2023-01-27T13:20:20.002Z,1.64
2023-01-27T13:23:14.063Z,1.44
2023-01-27T13:25:47.863Z,1.46
2023-01-27T13:28:50.471Z,1.38
2023-01-27T13:31:33.726Z,1.34
2023-01-27T13:34:23.565Z,1.18
2023-01-27T13:37:28.411Z,1.14
2023-01-27T13:40:18.195Z,0.99
2023-01-27T13:42:54.733Z,1.36
2023-01-27T13:45:33.308Z,1.17
2023-01-27T13:48:27.034Z,1.56
2023-01-27T13:51:22.220Z,1.48
2023-01-27T13:53:59.595Z,1.31
2023-01-27T13:56:46.278Z,0.94
2023-01-27T13:59:38.928Z,1.18
2023-01-27T14:02:38.770Z,1.42
2023-01-27T14:05:18.494Z,1.41
2023-01-27T14:08:02.984Z,1.44
2023-01-27T14:10:40.201Z,1.18
2023-01-27T14:13:10.891Z,1.05
2023-01-27T14:15:54.932Z,1.39
2023-01-27T14:18:29.360Z,1.25
2023-01-27T14:21:21.063Z,1.36
2023-01-27T14:24:33.657Z,1.26
2023-01-27T14:27:09.161Z,1.29
2023-01-27T14:30:04.714Z,1.46
2023-01-27T14:32:58.170Z,1.54
2023-01-27T14:35:52.212Z,1.61
2023-01-27T14:38:48.417Z,1.05
2023-01-27T14:41:16.949Z,1.28
2023-01-27T14:43:49.025Z,1.41
2023-01-27T14:46:22.904Z,1.42
2023-01-27T14:49:22.421Z,1.06
2023-01-27T14:52:45.747Z,1.10
2023-01-27T14:55:29.882Z,1.18
2023-01-27T14:58:18.553Z,1.30
2023-01-27T15:01:09.827Z,1.69
2023-01-27T15:04:18.117Z,1.31
2023-01-27T15:06:55.578Z,1.42
2023-01-27T15:09:32.513Z,1.57
2023-01-27T15:12:16.490Z,1.66
2023-01-27T15:15:25.894Z,1.07
2023-01-27T15:18:10.083Z,1.45
2023-01-27T15:21:14.967Z,1.67
2023-01-27T15:23:52.946Z,1.97
2023-01-27T15:26:25.634Z,1.94
2023-01-27T15:28:53.018Z,1.43
2023-01-27T15:31:24.634Z,1.17
2023-01-27T15:34:03.199Z,1.26
2023-01-27T15:36:40.549Z,1.41
2023-01-27T15:39:11.206Z,1.74
2023-01-27T15:42:02.575Z,1.64
2023-01-27T15:44:38.975Z,1.66
2023-01-27T15:47:22.129Z,1.34
2023-01-27T15:50:00.626Z,1.16
2023-01-27T15:53:01.342Z,1.20
2023-01-27T15:55:33.037Z,1.02
2023-01-27T15:58:15.587Z,1.11
2023-01-27T16:00:54.910Z,1.31
2023-01-27T16:03:30.968Z,1.44
2023-01-27T16:06:12.351Z,0.85
2023-01-27T16:08:49.091Z,0.82
2023-01-27T16:11:36.950Z,0.80
2023-01-27T16:14:14.094Z,1.13
2023-01-27T16:17:02.803Z,1.12
2023-01-27T16:19:38.824Z,1.07
2023-01-27T16:22:17.786Z,1.20
2023-01-27T16:24:58.766Z,0.96
2023-01-27T16:27:54.427Z,0.99
2023-01-27T16:30:32.104Z,1.06
2023-01-27T16:33:16.177Z,1.29
2023-01-27T16:36:17.262Z,1.45
2023-01-27T16:38:46.910Z,1.72
2023-01-27T16:41:29.171Z,1.42
2023-01-27T16:44:13.493Z,0.79
2023-01-27T16:46:45.634Z,0.60
2023-01-27T16:49:34.817Z,0.51
2023-01-27T16:52:06.054Z,0.90
2023-01-27T16:54:43.355Z,0.87
2023-01-27T16:57:36.617Z,0.91
2023-01-27T17:00:18.059Z,0.74
2023-01-27T17:02:47.940Z,0.88
2023-01-27T17:05:18.863Z,1.03
2023-01-27T17:08:19.088Z,0.93
2023-01-27T17:10:57.980Z,1.17
2023-01-27T17:13:48.736Z,1.17
2023-01-27T17:16:25.139Z,1.48
2023-01-27T17:18:54.887Z,1.88
2023-01-27T17:21:37.962Z,1.45
2023-01-27T17:24:16.202Z,1.51
2023-01-27T17:26:48.091Z,1.36
2023-01-27T17:29:23.244Z,0.57
2023-01-27T17:31:53.198Z,0.86
2023-01-27T17:34:22.089Z,0.96
2023-01-27T17:37:15.532Z,0.83
2023-01-27T17:39:45.035Z,1.05
2023-01-27T17:42:19.542Z,1.38
2023-01-27T17:44:48.608Z,1.20
2023-01-27T17:47:20.863Z,0.86
2023-01-27T17:49:51.528Z,1.11
2023-01-27T17:52:27.909Z,1.12
2023-01-27T17:54:56.138Z,1.31
2023-01-27T17:57:32.751Z,1.28
2023-01-27T18:00:11.503Z,0.58
2023-01-27T18:02:54.755Z,0.29
2023-01-27T18:05:26.653Z,0.58
2023-01-27T18:07:55.472Z,0.41
2023-01-27T18:10:30.271Z,0.74
2023-01-27T18:13:13.908Z,0.84
2023-01-27T18:16:02.425Z,0.80
2023-01-27T18:18:33.719Z,0.82
2023-01-27T18:21:02.628Z,1.14
2023-01-27T18:23:33.495Z,1.35
2023-01-27T18:26:17.681Z,1.14
2023-01-27T18:28:50.336Z,1.03
2023-01-27T18:31:25.743Z,0.89
2023-01-27T18:34:06.963Z,0.73
2023-01-27T18:36:38.027Z,0.81
2023-01-27T18:39:28.459Z,1.11
2023-01-27T18:41:57.339Z,1.01
2023-01-27T18:44:34.850Z,1.12
2023-01-27T18:47:28.792Z,1.28
2023-01-27T18:50:12.813Z,0.87
2023-01-27T18:52:40.761Z,0.37
2023-01-27T18:55:23.843Z,0.51
2023-01-27T18:57:57.622Z,0.68
2023-01-27T19:00:31.677Z,0.48
2023-01-27T19:03:02.073Z,0.61
2023-01-27T19:05:34.657Z,0.50
2023-01-27T19:08:04.010Z,0.74
2023-01-27T19:10:34.891Z,0.93
2023-01-27T19:13:04.741Z,1.16
2023-01-27T19:15:40.141Z,0.91
2023-01-27T19:18:35.906Z,0.74
2023-01-27T19:21:06.501Z,0.65
2023-01-27T19:23:38.665Z,0.90
2023-01-27T19:26:15.124Z,0.84
2023-01-27T19:28:47.356Z,1.18
2023-01-27T19:31:15.762Z,1.42
2023-01-27T19:33:45.399Z,0.82
2023-01-27T19:36:44.641Z,0.89
2023-01-27T19:39:22.846Z,0.91
2023-01-27T19:41:51.337Z,1.06
2023-01-27T19:44:19.855Z,0.73
2023-01-27T19:46:49.299Z,0.79
2023-01-27T19:49:20.378Z,0.97
2023-01-27T19:51:48.686Z,1.36
2023-01-27T19:54:18.689Z,1.20
2023-01-27T19:56:47.764Z,1.01
2023-01-27T19:59:18.851Z,1.21
2023-01-27T20:01:47.592Z,0.88
2023-01-27T20:04:15.523Z,1.01
2023-01-27T20:06:46.710Z,0.91
2023-01-27T20:09:15.673Z,0.98
2023-01-27T20:11:43.896Z,0.98
2023-01-27T20:14:14.896Z,1.18
2023-01-27T20:16:44.193Z,1.14
2023-01-27T20:19:15.542Z,1.34
2023-01-27T20:21:44.766Z,1.38
2023-01-27T20:24:16.642Z,1.53
2023-01-27T20:26:43.597Z,1.32
2023-01-27T20:29:11.452Z,1.03
2023-01-27T20:31:40.630Z,1.07
2023-01-27T20:34:08.375Z,1.17
2023-01-27T20:36:36.802Z,1.08
2023-01-27T20:39:04.963Z,1.32
2023-01-27T20:41:35.609Z,1.30
2023-01-27T20:44:03.465Z,1.26
2023-01-27T20:46:35.084Z,1.35
2023-01-27T20:49:02.935Z,1.53
2023-01-27T20:51:29.932Z,1.35
2023-01-27T20:53:58.078Z,0.87
2023-01-27T20:56:27.778Z,0.98
2023-01-27T20:58:54.974Z,0.87
2023-01-27T21:01:24.009Z,0.90
2023-01-27T21:03:52.208Z,0.81
2023-01-27T21:06:20.511Z,0.81
2023-01-27T21:08:49.612Z,0.92
2023-01-27T21:11:19.722Z,0.89
2023-01-27T21:13:49.044Z,1.03
2023-01-27T21:16:18.883Z,1.31
2023-01-27T21:18:46.056Z,1.19
2023-01-27T21:21:32.381Z,1.10
2023-01-27T21:24:00.595Z,1.29
2023-01-27T21:26:28.837Z,1.45
2023-01-27T21:28:57.523Z,1.41
2023-01-27T21:31:30.276Z,1.21
2023-01-27T21:34:01.771Z,1.15
2023-01-27T21:36:31.449Z,1.19
2023-01-27T21:39:02.925Z,1.21
2023-01-27T21:41:49.758Z,1.26
2023-01-27T21:44:47.089Z,1.07
2023-01-27T21:47:17.559Z,0.83
2023-01-27T21:50:01.447Z,0.72
2023-01-27T21:52:39.227Z,0.85
2023-01-27T21:55:10.025Z,0.68
2023-01-27T21:57:38.521Z,1.05
2023-01-27T22:00:09.539Z,1.25
2023-01-27T22:02:36.499Z,1.34
2023-01-27T22:05:11.731Z,1.48
2023-01-27T22:07:40.907Z,1.13
2023-01-27T22:10:14.306Z,1.30
2023-01-27T22:12:42.467Z,1.45
2023-01-27T22:15:11.062Z,1.41
2023-01-27T22:17:38.103Z,1.53
2023-01-27T22:20:05.538Z,1.17
2023-01-27T22:22:38.846Z,1.03
2023-01-27T22:25:08.462Z,1.23
2023-01-27T22:27:36.454Z,1.13
2023-01-27T22:30:05.001Z,1.16
2023-01-27T22:32:32.891Z,1.02
2023-01-27T22:35:01.323Z,0.81
2023-01-27T22:37:29.197Z,0.60
2023-01-27T22:39:56.972Z,0.60
2023-01-27T22:42:24.623Z,0.69
2023-01-27T22:44:52.686Z,0.61
2023-01-27T22:47:22.178Z,0.83
2023-01-27T22:49:51.251Z,0.75
2023-01-27T22:52:19.289Z,0.42
2023-01-27T22:54:47.113Z,0.57
2023-01-27T22:57:15.414Z,0.44
2023-01-27T22:59:43.446Z,0.58
2023-01-27T23:02:11.409Z,0.74
2023-01-27T23:04:41.083Z,1.01
2023-01-27T23:07:10.630Z,1.12
2023-01-27T23:09:43.517Z,1.04
2023-01-27T23:12:13.916Z,1.07
2023-01-27T23:14:41.153Z,0.71
2023-01-27T23:17:12.704Z,1.03
2023-01-27T23:19:41.805Z,0.96
2023-01-27T23:22:16.766Z,1.08
2023-01-27T23:24:44.266Z,1.01
2023-01-27T23:27:11.366Z,1.15
2023-01-27T23:29:38.519Z,0.65
2023-01-27T23:32:06.613Z,0.43
2023-01-27T23:34:36.493Z,0.68
2023-01-27T23:37:06.241Z,0.84
2023-01-27T23:39:34.273Z,0.61
2023-01-27T23:42:03.846Z,0.57
2023-01-27T23:44:33.706Z,0.71
2023-01-27T23:47:08.419Z,0.50
2023-01-27T23:49:38.316Z,0.75
2023-01-27T23:52:08.076Z,0.96
2023-01-27T23:54:36.124Z,1.13
2023-01-27T23:57:04.071Z,1.44
2023-01-27T23:59:33.604Z,1.53
